Time;durP1;ratioP1;P1;durP2;ratioP2;P2;SDS_P1;SDS_P2;PMS_P1;PMS_P2;Temp;Humidity;BMP_temperature;BMP_pressure;BME280_temperature;BME280_humidity;BME280_pressure;Samples;Min_cycle;Max_cycle;Signal;HPM_P1;HPM_P2
2022/08/16 00:00:14;;;;;;;8.90;4.58;;;;;;;25.53;52.58;98953.30;1623274;87;21155;-69
2022/08/16 00:02:41;;;;;;;8.40;4.33;;;;;;;25.51;52.25;98957.82;1636133;86;21594;-69
2022/08/16 00:05:09;;;;;;;9.03;3.98;;;;;;;25.51;51.89;98964.70;1640375;87;21519;-69
2022/08/16 00:07:36;;;;;;;9.55;4.60;;;;;;;25.52;51.40;98967.65;1634042;87;21032;-70
2022/08/16 00:10:05;;;;;;;13.05;4.37;;;;;;;25.59;51.10;98970.58;1648377;86;21007;-69
2022/08/16 00:12:31;;;;;;;8.95;4.58;;;;;;;25.64;52.60;98972.23;1654450;86;21540;-68
2022/08/16 00:15:02;;;;;;;14.53;4.58;;;;;;;25.57;53.13;98966.00;1653924;86;21119;-73
2022/08/16 00:17:29;;;;;;;7.45;3.95;;;;;;;25.51;53.40;98961.16;1592552;89;22285;-73
2022/08/16 00:19:55;;;;;;;10.23;4.20;;;;;;;25.46;53.70;98975.23;1652953;86;21050;-72
2022/08/16 00:22:23;;;;;;;11.57;4.83;;;;;;;25.40;53.40;98987.11;1685227;82;21040;-73
2022/08/16 00:24:53;;;;;;;15.35;5.17;;;;;;;25.37;53.65;98997.46;1682505;84;21073;-73
2022/08/16 00:27:19;;;;;;;4.72;4.00;;;;;;;25.37;53.84;98995.31;1681085;85;21001;-72
2022/08/16 00:29:47;;;;;;;10.80;4.70;;;;;;;25.36;54.32;99006.11;1688813;84;21518;-72
2022/08/16 00:32:15;;;;;;;10.32;4.60;;;;;;;25.33;54.80;99015.88;1674694;84;21016;-73
2022/08/16 00:34:43;;;;;;;10.72;5.60;;;;;;;25.28;54.78;99012.61;1633235;85;21588;-73
2022/08/16 00:37:10;;;;;;;6.22;4.55;;;;;;;25.23;55.01;99010.95;1680113;85;21056;-72
2022/08/16 00:39:36;;;;;;;6.47;3.67;;;;;;;25.19;55.18;99010.89;1670003;84;21023;-72
2022/08/16 00:42:04;;;;;;;6.45;4.12;;;;;;;25.17;55.15;99013.23;1683973;84;21245;-72
2022/08/16 00:44:31;;;;;;;5.17;4.37;;;;;;;25.15;55.26;99022.99;1670855;84;21084;-72
2022/08/16 00:47:07;;;;;;;11.00;4.45;;;;;;;25.11;55.29;99023.51;1679152;83;20998;-73
2022/08/16 00:49:35;;;;;;;13.53;5.00;;;;;;;25.08;55.55;99028.37;1682272;84;21043;-73
2022/08/16 00:52:03;;;;;;;13.88;4.87;;;;;;;25.04;56.14;99039.28;1657557;84;21147;-69
2022/08/16 00:54:30;;;;;;;10.60;4.22;;;;;;;24.98;57.35;99036.62;1640641;84;21928;-76
2022/08/16 00:56:59;;;;;;;7.70;4.17;;;;;;;24.94;57.37;99034.95;1680039;85;21008;-77
2022/08/16 00:59:28;;;;;;;11.25;4.70;;;;;;;24.89;58.12;99034.63;1668382;85;20992;-73
2022/08/16 01:01:55;;;;;;;5.97;4.17;;;;;;;24.81;58.15;99038.94;1689532;83;21052;-73
2022/08/16 01:04:23;;;;;;;8.00;5.28;;;;;;;24.71;59.27;99060.92;1622878;86;21107;-75
2022/08/16 01:06:50;;;;;;;6.25;4.62;;;;;;;24.55;61.34;99045.86;1645432;86;21159;-69
2022/08/16 01:09:18;;;;;;;7.42;4.72;;;;;;;24.35;62.68;99045.58;1640253;87;21104;-70
2022/08/16 01:11:45;;;;;;;7.55;4.40;;;;;;;24.13;64.85;99027.73;1642180;86;21063;-74
2022/08/16 01:14:17;;;;;;;6.78;4.30;;;;;;;23.89;66.35;99030.09;1619465;87;21072;-75
2022/08/16 01:16:45;;;;;;;6.55;5.00;;;;;;;23.62;67.96;99032.33;1619408;87;21510;-72
2022/08/16 01:19:20;;;;;;;6.47;4.92;;;;;;;23.38;69.29;99033.23;1640460;87;21088;-72
2022/08/16 01:22:04;;;;;;;6.15;4.60;;;;;;;23.28;69.82;99024.13;1637519;87;21004;-73
2022/08/16 01:24:44;;;;;;;8.18;4.90;;;;;;;23.24;70.04;99014.20;1638906;87;20998;-74
2022/08/16 01:27:16;;;;;;;8.58;5.47;;;;;;;23.17;70.56;98997.53;1603715;87;21083;-71
2022/08/16 01:29:56;;;;;;;6.80;4.10;;;;;;;23.07;71.50;98998.06;1678736;84;21087;-75
2022/08/16 01:32:23;;;;;;;14.65;4.95;;;;;;;22.99;72.47;99005.27;1654688;85;21517;-73
2022/08/16 01:34:50;;;;;;;5.00;4.50;;;;;;;22.91;73.41;99003.48;1646049;85;21201;-71
2022/08/16 01:37:17;;;;;;;15.68;5.45;;;;;;;22.85;74.48;99004.86;1664832;85;21040;-72
2022/08/16 01:39:44;;;;;;;4.65;4.15;;;;;;;22.80;74.81;99009.22;1662869;85;21593;-73
2022/08/16 01:42:10;;;;;;;9.63;5.25;;;;;;;22.82;74.51;99002.83;1689704;84;21020;-73
2022/08/16 01:44:37;;;;;;;7.03;5.45;;;;;;;22.82;73.73;99007.73;1680769;84;21820;-76
2022/08/16 01:47:04;;;;;;;14.87;5.75;;;;;;;22.86;72.48;99004.52;1664575;84;21621;-72
2022/08/16 01:49:40;;;;;;;9.00;4.62;;;;;;;22.85;71.08;99002.13;1675357;84;21488;-72
2022/08/16 01:52:11;;;;;;;8.23;5.25;;;;;;;22.87;70.80;99001.21;1682961;85;21017;-71
2022/08/16 01:54:39;;;;;;;7.97;5.25;;;;;;;22.88;69.95;98999.47;1670091;85;20946;-70
2022/08/16 01:57:08;;;;;;;21.15;7.47;;;;;;;22.95;69.73;99004.38;1681866;84;21877;-71
2022/08/16 01:59:37;;;;;;;7.85;5.22;;;;;;;22.96;69.32;98999.92;1685825;85;21007;-71
2022/08/16 02:02:04;;;;;;;8.00;4.60;;;;;;;22.97;68.89;99009.72;1681443;85;21070;-72
2022/08/16 02:04:32;;;;;;;10.00;5.55;;;;;;;23.00;68.73;99002.76;1647569;87;21024;-72
2022/08/16 02:07:07;;;;;;;14.55;6.47;;;;;;;22.98;69.26;99000.36;1634061;85;21103;-71
2022/08/16 02:09:29;;;;;;;17.48;6.72;;;;;;;22.97;69.13;98990.52;1674865;85;21086;-72
2022/08/16 02:11:59;;;;;;;6.10;5.50;;;;;;;22.95;69.31;98987.34;1688884;84;21052;-72
2022/08/16 02:14:28;;;;;;;10.30;5.60;;;;;;;22.95;68.99;98985.98;1682168;84;21557;-72
2022/08/16 02:16:57;;;;;;;11.03;5.53;;;;;;;22.93;69.07;98984.14;1669115;85;21029;-72
2022/08/16 02:19:26;;;;;;;7.53;4.83;;;;;;;22.92;69.23;98984.52;1687769;84;20984;-72
2022/08/16 02:21:53;;;;;;;8.10;4.70;;;;;;;22.95;69.25;98986.55;1690540;84;21243;-71
2022/08/16 02:24:21;;;;;;;9.93;6.60;;;;;;;23.00;69.20;98980.81;1674455;84;21572;-72
2022/08/16 02:26:48;;;;;;;6.50;5.90;;;;;;;23.03;68.83;98991.88;1688944;84;21072;-71
2022/08/16 02:29:17;;;;;;;7.10;4.70;;;;;;;23.07;68.77;98986.48;1681115;84;20977;-71
2022/08/16 02:31:45;;;;;;;11.10;5.67;;;;;;;23.08;68.73;98992.20;1689773;84;21072;-70
2022/08/16 02:34:13;;;;;;;5.95;5.00;;;;;;;23.10;68.50;98987.17;1689444;84;21146;-72
2022/08/16 02:36:40;;;;;;;8.43;6.05;;;;;;;23.12;68.38;98969.00;1685754;84;21556;-73
2022/08/16 02:39:10;;;;;;;10.15;5.35;;;;;;;23.11;68.39;98968.77;1677925;84;21550;-74
2022/08/16 02:41:38;;;;;;;5.10;4.70;;;;;;;23.10;68.25;98963.86;1603871;88;21522;-74
2022/08/16 02:44:05;;;;;;;7.65;5.70;;;;;;;23.07;68.20;98959.05;1649783;86;21080;-74
2022/08/16 02:46:33;;;;;;;9.63;5.80;;;;;;;23.04;68.33;98961.14;1629684;87;21164;-73
2022/08/16 02:49:00;;;;;;;12.90;5.87;;;;;;;23.01;68.61;98954.98;1615825;87;21070;-73
2022/08/16 02:51:27;;;;;;;11.90;6.35;;;;;;;22.96;68.97;98964.27;1627831;86;20964;-76
2022/08/16 02:53:54;;;;;;;11.97;6.10;;;;;;;22.93;69.17;98962.77;1635504;86;21516;-75
2022/08/16 02:56:22;;;;;;;10.48;6.25;;;;;;;22.86;69.60;98970.25;1637066;86;21575;-75
2022/08/16 02:58:50;;;;;;;9.98;5.87;;;;;;;22.81;69.63;98964.20;1604623;87;21159;-76
2022/08/16 03:01:23;;;;;;;7.55;6.37;;;;;;;22.78;69.92;98962.94;1640303;87;21208;-76
2022/08/16 03:03:52;;;;;;;7.65;5.72;;;;;;;22.72;70.27;98961.61;1640287;87;28182;-76
2022/08/16 03:06:20;;;;;;;14.68;6.05;;;;;;;22.74;70.24;98965.36;1639803;87;21022;-76
2022/08/16 03:08:48;;;;;;;6.40;5.75;;;;;;;22.73;70.20;98954.99;1649707;85;21018;-75
2022/08/16 03:11:17;;;;;;;8.50;6.15;;;;;;;22.75;70.23;98953.25;1683396;85;21111;-75
2022/08/16 03:13:45;;;;;;;17.30;5.35;;;;;;;22.72;70.20;98957.50;1678253;83;21043;-75
2022/08/16 03:16:12;;;;;;;8.98;6.15;;;;;;;22.71;70.37;98952.36;1711091;83;21046;-75
2022/08/16 03:18:40;;;;;;;9.00;6.35;;;;;;;22.67;70.54;98948.69;1689853;83;21056;-74
2022/08/16 03:21:08;;;;;;;7.80;6.20;;;;;;;22.62;70.83;98940.14;1629644;86;21616;-76
2022/08/16 03:23:35;;;;;;;17.25;11.03;;;;;;;22.56;71.02;98942.89;1660756;83;21250;-72
2022/08/16 03:26:01;;;;;;;10.60;6.35;;;;;;;22.50;71.06;98943.70;1629963;87;20979;-74
2022/08/16 03:28:29;;;;;;;7.65;6.87;;;;;;;22.47;71.13;98932.64;1606578;87;21541;-76
2022/08/16 03:30:55;;;;;;;9.98;6.58;;;;;;;22.47;70.91;98943.60;1673788;85;21549;-75
2022/08/16 03:33:23;;;;;;;12.23;6.45;;;;;;;22.45;71.24;98956.27;1647782;87;21068;-74
2022/08/16 03:35:58;;;;;;;12.20;5.47;;;;;;;22.45;71.09;98960.95;1649417;85;21007;-74
2022/08/16 03:38:26;;;;;;;12.47;5.70;;;;;;;22.43;71.15;98958.58;1683902;84;21075;-76
2022/08/16 03:40:55;;;;;;;6.55;5.35;;;;;;;22.44;70.91;98963.48;1685056;84;21552;-74
2022/08/16 03:43:26;;;;;;;10.40;5.92;;;;;;;22.46;70.90;98974.32;1673096;85;21239;-75
2022/08/16 03:45:52;;;;;;;7.37;4.92;;;;;;;22.46;70.96;98963.92;1679497;84;21013;-74
2022/08/16 03:48:21;;;;;;;11.50;5.90;;;;;;;22.48;70.92;98969.88;1686073;84;21590;-75
2022/08/16 03:50:47;;;;;;;15.50;5.67;;;;;;;22.49;71.04;98971.47;1644393;87;20981;-76
2022/08/16 03:53:14;;;;;;;11.30;6.45;;;;;;;22.46;71.47;98970.77;1640641;87;21025;-76
2022/08/16 03:55:41;;;;;;;8.65;6.17;;;;;;;22.42;71.80;98972.05;1640503;87;21581;-75
2022/08/16 03:58:07;;;;;;;7.92;5.55;;;;;;;22.39;72.00;98972.75;1604845;87;21080;-75
2022/08/16 04:00:34;;;;;;;21.75;7.90;;;;;;;22.42;72.04;98970.68;1603015;89;21592;-74
2022/08/16 04:03:06;;;;;;;10.45;6.95;;;;;;;22.42;72.21;98969.88;1603932;87;21026;-76
2022/08/16 04:05:36;;;;;;;10.20;5.97;;;;;;;22.41;72.67;98962.22;1662939;85;21042;-76
2022/08/16 04:08:04;;;;;;;9.08;6.05;;;;;;;22.39;72.83;98964.53;1674936;84;21118;-75
2022/08/16 04:10:31;;;;;;;13.03;6.72;;;;;;;22.37;73.14;98961.32;1648197;87;21043;-75
2022/08/16 04:13:00;;;;;;;14.55;6.40;;;;;;;22.36;73.52;98970.68;1647702;86;21192;-77
2022/08/16 04:15:28;;;;;;;10.25;5.45;;;;;;;22.35;73.91;98956.75;1659610;84;21494;-78
2022/08/16 04:18:08;;;;;;;11.35;6.75;;;;;;;22.36;73.81;98965.20;1644649;84;21506;-77
2022/08/16 04:20:35;;;;;;;6.97;6.05;;;;;;;22.39;73.91;98965.09;1680121;85;21060;-78
2022/08/16 04:23:04;;;;;;;9.33;6.33;;;;;;;22.41;74.08;98953.20;1678902;85;21501;-75
2022/08/16 04:25:31;;;;;;;10.43;6.95;;;;;;;22.41;74.36;98962.22;1680283;84;21185;-75
2022/08/16 04:27:58;;;;;;;10.23;7.28;;;;;;;22.40;74.86;98959.25;1680981;85;21001;-76
2022/08/16 04:30:26;;;;;;;9.88;5.85;;;;;;;22.39;74.90;98956.31;1681263;84;21556;-75
2022/08/16 04:32:53;;;;;;;7.95;5.53;;;;;;;22.38;75.47;98950.59;1686473;84;21084;-76
2022/08/16 04:35:22;;;;;;;10.90;5.85;;;;;;;22.31;76.03;98950.37;1641494;87;21088;-75
2022/08/16 04:37:50;;;;;;;8.55;6.58;;;;;;;22.32;76.44;98956.65;1613536;87;21085;-77
2022/08/16 04:40:20;;;;;;;8.25;7.10;;;;;;;22.30;76.59;98946.02;1614350;87;20965;-76
2022/08/16 04:42:47;;;;;;;9.85;6.78;;;;;;;22.30;76.95;98958.35;1614268;88;21025;-77
2022/08/16 04:45:16;;;;;;;11.78;6.67;;;;;;;22.32;76.92;98962.13;1634388;87;21482;-75
2022/08/16 04:47:43;;;;;;;13.83;5.87;;;;;;;22.37;76.88;98967.38;1640552;87;21084;-75
2022/08/16 04:50:19;;;;;;;7.08;5.67;;;;;;;22.40;77.03;98964.73;1640154;87;23550;-76
2022/08/16 04:52:59;;;;;;;8.55;5.90;;;;;;;22.42;76.82;98963.03;1621999;87;21092;-75
2022/08/16 04:55:28;;;;;;;12.00;6.28;;;;;;;22.45;76.60;98975.45;1611208;87;21087;-76
2022/08/16 04:57:56;;;;;;;10.03;6.62;;;;;;;22.52;76.27;98963.92;1652808;86;21055;-74
2022/08/16 05:00:32;;;;;;;7.42;5.83;;;;;;;22.57;75.88;98969.97;1619913;88;21057;-74
2022/08/16 05:03:04;;;;;;;6.35;5.42;;;;;;;22.61;75.47;98967.32;1613336;88;21115;-74
2022/08/16 05:05:33;;;;;;;11.75;5.05;;;;;;;22.69;74.60;98966.38;1613969;88;21040;-76
2022/08/16 05:08:00;;;;;;;9.03;5.10;;;;;;;22.78;74.06;98971.77;1613884;88;21060;-73
2022/08/16 05:10:27;;;;;;;9.60;5.42;;;;;;;22.89;73.40;98974.22;1622563;87;21074;-74
2022/08/16 05:12:54;;;;;;;25.35;15.65;;;;;;;22.97;72.73;98976.04;1619760;87;21044;-73
2022/08/16 05:15:22;;;;;;;10.68;7.37;;;;;;;23.04;72.14;98977.02;1620876;88;22063;-76
2022/08/16 05:17:49;;;;;;;8.88;4.85;;;;;;;23.12;71.28;98982.13;1592796;89;21033;-77
2022/08/16 05:20:16;;;;;;;10.88;6.00;;;;;;;23.16;70.70;98985.78;1650354;85;20956;-74
2022/08/16 05:22:43;;;;;;;5.40;4.55;;;;;;;23.24;70.04;98995.00;1640324;87;21103;-76
2022/08/16 05:25:12;;;;;;;12.78;5.67;;;;;;;23.27;69.46;99003.89;1639838;85;20995;-74
2022/08/16 05:27:49;;;;;;;6.22;5.03;;;;;;;23.30;69.10;99015.55;1602953;88;21165;-77
2022/08/16 05:30:17;;;;;;;7.00;5.58;;;;;;;23.35;69.22;99017.48;1612605;87;21089;-77
2022/08/16 05:32:44;;;;;;;9.20;5.95;;;;;;;23.40;68.94;99021.91;1617555;87;21012;-75
2022/08/16 05:35:13;;;;;;;17.95;7.70;;;;;;;23.42;68.81;99032.75;1639763;87;21653;-73
2022/08/16 05:37:44;;;;;;;20.23;12.58;;;;;;;23.43;68.88;99030.80;1682113;83;21080;-76
2022/08/16 05:40:13;;;;;;;31.48;24.52;;;;;;;23.46;68.90;99032.30;1686095;84;21170;-75
2022/08/16 05:42:41;;;;;;;32.48;23.20;;;;;;;23.49;68.21;99032.75;1645755;87;21040;-76
2022/08/16 05:45:09;;;;;;;21.07;13.28;;;;;;;23.51;68.19;99033.19;1640457;87;21005;-78
2022/08/16 05:47:36;;;;;;;20.27;8.93;;;;;;;23.50;67.84;99034.36;1664237;86;21629;-78
2022/08/16 05:50:05;;;;;;;11.78;6.78;;;;;;;23.52;67.16;99023.81;1612476;87;21047;-75
2022/08/16 05:52:33;;;;;;;10.32;5.92;;;;;;;23.56;67.05;99036.48;1602809;89;21160;-79
2022/08/16 05:55:01;;;;;;;8.08;4.97;;;;;;;23.57;67.11;99042.77;1625828;87;20980;-77
2022/08/16 05:57:29;;;;;;;13.55;7.65;;;;;;;23.57;66.80;99051.00;1639600;86;21032;-78
2022/08/16 05:59:57;;;;;;;11.50;7.60;;;;;;;23.59;66.87;99041.86;1640496;87;21525;-75
2022/08/16 06:02:26;;;;;;;6.28;5.67;;;;;;;23.60;66.83;99036.56;1664081;86;21113;-76
2022/08/16 06:04:52;;;;;;;9.15;5.15;;;;;;;23.63;66.96;99027.64;1639808;87;21562;-76
2022/08/16 06:07:20;;;;;;;10.53;5.65;;;;;;;23.65;67.00;99030.81;1640348;86;21052;-75
2022/08/16 06:09:48;;;;;;;13.32;5.92;;;;;;;23.68;66.96;99023.27;1640467;87;20962;-74
2022/08/16 06:12:15;;;;;;;22.32;7.58;;;;;;;23.66;67.05;99031.84;1639767;87;21155;-77
2022/08/16 06:14:44;;;;;;;10.40;7.03;;;;;;;23.67;67.44;99025.21;1640368;86;21073;-76
2022/08/16 06:17:11;;;;;;;15.00;8.95;;;;;;;23.67;67.61;99034.02;1640693;87;21810;-76
2022/08/16 06:19:38;;;;;;;14.65;7.35;;;;;;;23.62;68.36;99028.22;1640482;87;21052;-75
2022/08/16 06:22:07;;;;;;;16.00;7.40;;;;;;;23.63;68.25;99046.86;1641229;86;21081;-83
2022/08/16 06:24:36;;;;;;;23.62;6.17;;;;;;;23.63;68.43;99050.41;1664109;84;21124;-73
2022/08/16 06:27:03;;;;;;;11.35;6.12;;;;;;;23.63;67.91;99054.53;1616753;87;21117;-74
2022/08/16 06:29:32;;;;;;;5.60;5.08;;;;;;;23.68;67.83;99052.09;1681870;85;21142;-75
2022/08/16 06:31:59;;;;;;;13.40;5.40;;;;;;;23.70;67.89;99060.77;1688876;84;21008;-76
2022/08/16 06:34:27;;;;;;;14.63;5.55;;;;;;;23.74;68.11;99061.68;1687815;84;21068;-75
2022/08/16 06:36:55;;;;;;;7.75;6.00;;;;;;;23.73;67.81;99062.83;1635939;87;21537;-75
2022/08/16 06:39:23;;;;;;;14.07;5.60;;;;;;;23.71;68.01;99076.89;1640258;87;21564;-73
2022/08/16 06:41:51;;;;;;;12.78;5.58;;;;;;;23.70;68.36;99079.98;1641067;86;21187;-72
2022/08/16 06:44:37;;;;;;;11.65;5.92;;;;;;;23.66;68.76;99086.77;1621203;86;21021;-74
2022/08/16 06:47:06;;;;;;;13.60;5.80;;;;;;;23.58;69.18;99104.20;1612899;89;21577;-74
2022/08/16 06:49:33;;;;;;;11.60;7.42;;;;;;;23.54;69.45;99116.23;1612882;89;21081;-75
2022/08/16 06:52:01;;;;;;;7.80;6.80;;;;;;;23.53;69.78;99120.12;1635518;87;21116;-74
2022/08/16 06:54:28;;;;;;;10.15;6.22;;;;;;;23.53;69.93;99124.23;1618802;87;21158;-74
2022/08/16 06:56:55;;;;;;;10.32;5.75;;;;;;;23.47;70.11;99133.29;1637061;87;20963;-76
2022/08/16 06:59:24;;;;;;;10.25;5.67;;;;;;;23.48;70.05;99151.36;1639732;86;21318;-77
2022/08/16 07:01:51;;;;;;;19.82;7.53;;;;;;;23.45;69.61;99155.59;1640572;87;21013;-77
2022/08/16 07:04:18;;;;;;;17.02;7.28;;;;;;;23.48;68.51;99155.48;1640193;86;21020;-77
2022/08/16 07:06:45;;;;;;;11.95;6.90;;;;;;;23.51;66.51;99153.41;1640569;86;21107;-78
2022/08/16 07:09:14;;;;;;;25.82;9.00;;;;;;;23.59;65.96;99164.83;1637813;87;21180;-77
2022/08/16 07:11:43;;;;;;;8.40;7.35;;;;;;;23.64;65.52;99169.28;1639718;87;21055;-75
2022/08/16 07:14:11;;;;;;;14.58;7.50;;;;;;;23.66;65.53;99185.61;1640802;87;21159;-75
2022/08/16 07:16:41;;;;;;;10.88;7.80;;;;;;;23.69;65.58;99191.00;1641249;84;21065;-78
2022/08/16 07:19:08;;;;;;;11.97;8.73;;;;;;;23.71;65.73;99186.74;1640459;87;21168;-76
2022/08/16 07:21:37;;;;;;;12.78;8.03;;;;;;;23.67;66.02;99192.70;1640614;87;21004;-76
2022/08/16 07:24:06;;;;;;;26.90;7.83;;;;;;;23.66;66.16;99184.81;1638794;84;21060;-71
2022/08/16 07:26:35;;;;;;;13.40;6.15;;;;;;;23.61;66.09;99150.73;1708331;82;21060;-77
2022/08/16 07:29:03;;;;;;;17.92;6.08;;;;;;;23.58;65.91;99152.81;1688655;84;21154;-74
2022/08/16 07:31:30;;;;;;;18.30;6.58;;;;;;;23.54;66.08;99164.27;1649789;85;21248;-74
2022/08/16 07:33:57;;;;;;;18.17;8.33;;;;;;;23.49;66.50;99158.45;1647572;87;21668;-74
2022/08/16 07:36:29;;;;;;;13.18;6.55;;;;;;;23.43;68.42;99160.61;1647835;87;21044;-75
2022/08/16 07:38:57;;;;;;;12.37;6.37;;;;;;;23.29;70.08;99162.14;1647789;87;20996;-74
2022/08/16 07:41:25;;;;;;;10.05;5.72;;;;;;;23.06;71.87;99177.50;1647895;87;21593;-74
2022/08/16 07:43:53;;;;;;;27.60;6.65;;;;;;;22.86;73.49;99175.11;1658149;84;21193;-75
2022/08/16 07:46:20;;;;;;;13.90;5.65;;;;;;;22.65;75.34;99169.70;1651167;86;21569;-74
2022/08/16 07:48:47;;;;;;;9.08;6.00;;;;;;;22.55;75.84;99171.53;1647827;87;21013;-76
2022/08/16 07:51:15;;;;;;;10.28;7.40;;;;;;;22.49;76.39;99156.47;1648939;85;21087;-75
2022/08/16 07:53:43;;;;;;;11.12;5.12;;;;;;;22.41;77.48;99165.01;1677591;85;21029;-76
2022/08/16 07:56:12;;;;;;;10.23;5.70;;;;;;;22.32;78.04;99164.88;1680952;84;22098;-74
2022/08/16 07:58:39;;;;;;;9.40;5.58;;;;;;;22.16;79.53;99161.42;1681094;85;21593;-75
2022/08/16 08:01:11;;;;;;;11.90;5.55;;;;;;;22.06;80.24;99181.02;1681266;84;21629;-74
2022/08/16 08:03:42;;;;;;;11.00;5.22;;;;;;;21.92;81.59;99187.34;1679897;84;21006;-74
2022/08/16 08:06:10;;;;;;;6.22;5.37;;;;;;;21.82;82.93;99193.26;1647757;87;21120;-74
2022/08/16 08:08:38;;;;;;;11.78;6.70;;;;;;;21.75;84.09;99195.16;1664071;84;21146;-73
2022/08/16 08:11:05;;;;;;;8.83;6.35;;;;;;;21.68;85.64;99202.29;1647897;87;22199;-75
2022/08/16 08:13:33;;;;;;;14.28;7.47;;;;;;;21.54;87.33;99196.30;1647657;87;21094;-73
2022/08/16 08:16:00;;;;;;;10.38;6.67;;;;;;;21.49;87.57;99196.48;1655272;84;21761;-74
2022/08/16 08:18:28;;;;;;;11.53;7.42;;;;;;;21.50;88.35;99193.99;1682522;83;21061;-73
2022/08/16 08:20:56;;;;;;;12.88;8.30;;;;;;;21.44;89.30;99196.13;1686961;84;21166;-75
2022/08/16 08:23:24;;;;;;;16.97;9.05;;;;;;;21.48;89.86;99197.66;1674005;84;21644;-75
2022/08/16 08:25:53;;;;;;;19.48;8.25;;;;;;;21.50;90.38;99196.17;1678007;84;21076;-75
2022/08/16 08:28:21;;;;;;;13.35;6.65;;;;;;;21.44;90.94;99204.33;1680273;85;21043;-74
2022/08/16 08:30:49;;;;;;;12.25;8.23;;;;;;;21.44;91.94;99196.13;1673264;85;21081;-75
2022/08/16 08:33:17;;;;;;;12.73;6.50;;;;;;;21.45;92.10;99194.19;1674539;85;21915;-75
2022/08/16 08:35:44;;;;;;;13.00;9.33;;;;;;;21.51;92.35;99188.77;1678250;85;21528;-74
2022/08/16 08:38:11;;;;;;;11.12;8.38;;;;;;;21.49;92.32;99180.88;1678155;85;20996;-75
2022/08/16 08:40:39;;;;;;;13.03;9.03;;;;;;;21.37;92.89;99184.13;1660861;84;21265;-72
2022/08/16 08:43:12;;;;;;;18.67;9.00;;;;;;;21.26;93.91;99180.98;1653383;86;21118;-73
2022/08/16 08:45:36;;;;;;;14.45;9.23;;;;;;;21.22;94.19;99179.48;1665002;84;21224;-72
2022/08/16 08:48:04;;;;;;;13.35;9.83;;;;;;;21.24;94.75;99174.48;1677424;85;21105;-76
2022/08/16 08:50:33;;;;;;;13.53;8.58;;;;;;;21.21;95.03;99178.44;1657812;85;21094;-74
2022/08/16 08:53:01;;;;;;;18.32;8.98;;;;;;;21.19;95.25;99176.62;1663219;84;21060;-74
2022/08/16 08:55:30;;;;;;;18.57;12.00;;;;;;;21.21;95.07;99174.33;1682322;84;21461;-72
2022/08/16 08:57:57;;;;;;;12.45;9.55;;;;;;;21.23;94.95;99170.71;1686126;84;21147;-74
2022/08/16 09:00:27;;;;;;;11.75;9.55;;;;;;;21.31;95.18;99170.64;1662227;84;21585;-71
2022/08/16 09:02:56;;;;;;;22.50;9.78;;;;;;;21.35;95.25;99172.70;1591315;90;21105;-73
2022/08/16 09:05:28;;;;;;;12.98;8.35;;;;;;;21.40;95.24;99176.61;1648972;86;21077;-74
2022/08/16 09:07:53;;;;;;;12.47;8.60;;;;;;;21.47;95.28;99182.36;1628057;86;21119;-77
2022/08/16 09:10:23;;;;;;;13.70;8.23;;;;;;;21.44;94.90;99180.30;1648189;85;21270;-72
2022/08/16 09:12:50;;;;;;;12.23;8.45;;;;;;;21.49;95.31;99171.86;1637191;87;20995;-75
2022/08/16 09:15:22;;;;;;;9.93;7.58;;;;;;;21.54;94.97;99159.34;1639391;87;21081;-73
2022/08/16 09:17:51;;;;;;;10.68;8.38;;;;;;;21.57;94.91;99173.75;1638590;87;21096;-74
2022/08/16 09:20:18;;;;;;;11.78;7.95;;;;;;;21.59;94.75;99178.30;1651102;85;21028;-75
2022/08/16 09:22:45;;;;;;;14.47;8.55;;;;;;;21.62;94.96;99177.09;1634925;87;21188;-74
2022/08/16 09:25:12;;;;;;;9.43;7.08;;;;;;;21.63;95.07;99183.36;1634908;87;21591;-75
2022/08/16 09:27:40;;;;;;;11.93;8.50;;;;;;;21.65;94.92;99184.62;1635399;86;21080;-74
2022/08/16 09:30:10;;;;;;;14.98;8.95;;;;;;;21.71;94.74;99189.32;1646675;86;21015;-74
2022/08/16 09:32:38;;;;;;;12.80;8.73;;;;;;;21.79;94.65;99189.00;1640287;87;21534;-74
2022/08/16 09:35:07;;;;;;;17.92;9.43;;;;;;;21.86;94.16;99192.81;1618787;87;21657;-72
2022/08/16 09:37:34;;;;;;;10.20;7.87;;;;;;;21.89;93.99;99189.39;1634884;87;21128;-75
2022/08/16 09:40:02;;;;;;;13.50;9.20;;;;;;;21.93;93.78;99199.09;1640738;87;21051;-75
2022/08/16 09:42:29;;;;;;;13.20;9.05;;;;;;;21.97;93.41;99194.01;1643257;87;21624;-73
2022/08/16 09:44:58;;;;;;;12.47;8.55;;;;;;;22.04;92.95;99200.31;1640077;86;21085;-75
2022/08/16 09:47:26;;;;;;;8.45;7.65;;;;;;;22.12;92.47;99196.11;1639797;87;21287;-77
2022/08/16 09:49:53;;;;;;;8.68;7.80;;;;;;;22.13;92.09;99201.02;1641788;85;20998;-74
2022/08/16 09:52:22;;;;;;;14.68;11.10;;;;;;;22.15;92.30;99190.55;1636083;87;21643;-72
2022/08/16 09:54:49;;;;;;;15.40;8.25;;;;;;;22.20;92.10;99189.53;1629111;87;21165;-72
2022/08/16 09:57:17;;;;;;;11.65;8.13;;;;;;;22.29;92.17;99191.03;1624013;85;21589;-71
2022/08/16 09:59:44;;;;;;;12.43;8.60;;;;;;;22.39;91.84;99198.82;1639229;85;21177;-70
2022/08/16 10:02:11;;;;;;;15.88;8.78;;;;;;;22.52;91.57;99202.37;1609353;87;21552;-73
2022/08/16 10:04:37;;;;;;;9.90;8.90;;;;;;;22.67;90.23;99208.56;1634780;86;21112;-72
2022/08/16 10:07:04;;;;;;;11.43;8.55;;;;;;;22.69;87.87;99201.34;1632623;87;21117;-68
2022/08/16 10:09:31;;;;;;;10.48;8.55;;;;;;;22.69;88.30;99198.03;1640007;87;21554;-75
2022/08/16 10:14:44;;;;;;;13.35;8.68;;;;;;;22.87;87.86;99184.95;1677179;85;21004;-75
2022/08/16 10:17:12;;;;;;;16.73;8.55;;;;;;;22.87;86.37;99186.31;1649758;87;21064;-75
2022/08/16 10:19:39;;;;;;;8.80;7.53;;;;;;;22.78;86.70;99188.38;1635273;87;21161;-77
2022/08/16 10:22:06;;;;;;;16.37;8.05;;;;;;;22.75;86.60;99184.37;1635262;86;21064;-76
2022/08/16 10:24:34;;;;;;;13.18;7.70;;;;;;;22.69;86.97;99187.63;1631737;87;21171;-74
2022/08/16 10:27:00;;;;;;;14.07;8.30;;;;;;;22.68;87.39;99190.17;1616773;87;21099;-72
2022/08/16 10:29:28;;;;;;;15.48;7.47;;;;;;;22.71;87.55;99191.68;1659363;85;21071;-71
2022/08/16 10:31:56;;;;;;;11.48;7.75;;;;;;;22.74;87.44;99190.18;1655180;85;21042;-75
2022/08/16 10:34:23;;;;;;;10.18;7.53;;;;;;;22.83;87.65;99195.02;1639960;87;21084;-75
2022/08/16 10:36:49;;;;;;;14.43;7.60;;;;;;;22.92;87.03;99195.69;1640070;87;21521;-73
2022/08/16 10:39:18;;;;;;;10.75;7.87;;;;;;;23.04;86.78;99199.78;1641711;87;37805;-74
2022/08/16 10:41:45;;;;;;;11.88;8.83;;;;;;;23.09;86.49;99202.86;1640497;85;21073;-74
2022/08/16 10:44:13;;;;;;;9.33;8.23;;;;;;;23.14;86.53;99195.20;1639162;87;21115;-78
2022/08/16 10:46:41;;;;;;;9.65;6.60;;;;;;;23.29;86.21;99202.73;1628350;85;21132;-77
2022/08/16 10:49:10;;;;;;;15.55;7.22;;;;;;;23.34;85.64;99203.06;1629609;85;23564;-78
2022/08/16 10:51:38;;;;;;;10.58;7.55;;;;;;;23.39;85.25;99207.75;1655821;85;21021;-77
2022/08/16 10:54:05;;;;;;;12.65;8.30;;;;;;;23.46;84.99;99205.23;1663652;86;21069;-76
2022/08/16 10:56:33;;;;;;;9.15;8.15;;;;;;;23.55;85.06;99206.46;1656225;86;21056;-73
2022/08/16 10:58:59;;;;;;;17.77;9.18;;;;;;;23.67;84.27;99209.75;1659953;86;22188;-72
2022/08/16 11:01:26;;;;;;;18.23;8.28;;;;;;;23.72;84.05;99213.06;1659052;85;21313;-73
2022/08/16 11:03:54;;;;;;;11.08;9.65;;;;;;;23.82;83.93;99216.69;1663085;84;21093;-75
2022/08/16 11:06:21;;;;;;;16.45;7.58;;;;;;;23.97;83.84;99226.70;1651276;85;21089;-73
2022/08/16 11:08:48;;;;;;;14.33;7.90;;;;;;;24.05;82.69;99227.12;1638977;85;21559;-75
2022/08/16 11:11:15;;;;;;;12.45;7.80;;;;;;;24.15;82.02;99220.55;1663898;86;21547;-72
2022/08/16 11:13:44;;;;;;;17.15;7.72;;;;;;;24.20;81.33;99221.70;1667224;85;21179;-74
2022/08/16 11:16:12;;;;;;;10.10;7.95;;;;;;;24.22;80.27;99231.75;1648080;87;21034;-71
2022/08/16 11:18:39;;;;;;;9.30;8.15;;;;;;;24.26;79.61;99236.80;1649000;85;21064;-77
2022/08/16 11:21:06;;;;;;;12.40;8.20;;;;;;;24.29;78.78;99244.89;1632653;87;21057;-77
2022/08/16 11:23:34;;;;;;;13.78;7.70;;;;;;;24.27;78.83;99239.73;1628343;87;21860;-77
2022/08/16 11:26:02;;;;;;;15.08;8.43;;;;;;;24.25;78.65;99237.14;1627809;88;21600;-80
2022/08/16 11:28:31;;;;;;;21.62;8.93;;;;;;;24.28;78.97;99245.47;1628861;88;21080;-76
2022/08/16 11:30:58;;;;;;;11.18;8.23;;;;;;;24.19;79.58;99237.95;1632301;86;21565;-75
2022/08/16 11:33:25;;;;;;;11.65;6.72;;;;;;;24.19;79.50;99241.28;1633985;87;21108;-73